Time;durP1;ratioP1;P1;durP2;ratioP2;P2;SDS_P1;SDS_P2;PMS_P1;PMS_P2;Temp;Humidity;BMP_temperature;BMP_pressure;BME280_temperature;BME280_humidity;BME280_pressure;Samples;Min_cycle;Max_cycle;Signal;HPM_P1;HPM_P2
2023/08/31 00:01:49;;;;;;;2.20;1.77;;;13.60;99.90;;;;;;5089904;28;20184;-67
2023/08/31 00:04:15;;;;;;;3.53;2.47;;;13.60;99.90;;;;;;5089686;28;20656;-67
2023/08/31 00:06:41;;;;;;;3.60;2.47;;;13.50;99.90;;;;;;5088332;28;20448;-67
2023/08/31 00:09:10;;;;;;;3.63;2.87;;;13.50;99.90;;;;;;5089939;28;20480;-67
2023/08/31 00:11:36;;;;;;;6.17;2.43;;;13.50;99.90;;;;;;5089669;28;20447;-67
2023/08/31 00:14:02;;;;;;;4.77;3.17;;;13.60;99.90;;;;;;5088084;28;20432;-67
2023/08/31 00:16:28;;;;;;;5.23;2.60;;;13.50;99.90;;;;;;5087753;28;20452;-67
2023/08/31 00:18:56;;;;;;;5.20;2.73;;;13.50;99.90;;;;;;5088028;28;20198;-67
2023/08/31 00:21:22;;;;;;;4.93;2.70;;;13.50;99.90;;;;;;5089388;28;20263;-67
2023/08/31 00:23:48;;;;;;;4.90;2.30;;;13.50;99.90;;;;;;5087604;28;20935;-67
2023/08/31 00:26:14;;;;;;;4.40;2.60;;;13.50;99.90;;;;;;5089234;28;20546;-67
2023/08/31 00:28:42;;;;;;;4.77;2.20;;;13.50;99.90;;;;;;5089236;28;20461;-67
2023/08/31 00:31:08;;;;;;;4.60;2.30;;;13.40;99.90;;;;;;5089066;28;20416;-66
2023/08/31 00:33:34;;;;;;;10.07;3.27;;;13.50;99.90;;;;;;5089229;28;20834;-67
2023/08/31 00:36:01;;;;;;;3.30;2.33;;;13.40;99.90;;;;;;5089219;28;20452;-67
2023/08/31 00:38:27;;;;;;;5.63;2.47;;;13.40;99.90;;;;;;5087451;28;20425;-67
2023/08/31 00:40:54;;;;;;;2.57;2.13;;;13.40;99.90;;;;;;5089170;28;20424;-67
2023/08/31 00:43:19;;;;;;;3.93;2.40;;;13.40;99.90;;;;;;5088959;28;20972;-67
2023/08/31 00:45:48;;;;;;;8.23;2.60;;;13.40;99.90;;;;;;5088801;28;20443;-67
2023/08/31 00:48:19;;;;;;;6.00;2.47;;;13.40;99.90;;;;;;5087591;28;20485;-67
2023/08/31 00:50:46;;;;;;;3.23;2.40;;;13.40;99.90;;;;;;5089000;28;20425;-68
2023/08/31 00:53:13;;;;;;;4.23;2.17;;;13.40;99.90;;;;;;5088888;28;20481;-67
2023/08/31 00:55:40;;;;;;;2.87;2.40;;;13.40;99.90;;;;;;5088613;28;20471;-67
2023/08/31 00:58:06;;;;;;;2.43;2.23;;;13.30;99.90;;;;;;5087433;28;20436;-68
2023/08/31 01:00:40;;;;;;;5.87;3.13;;;13.40;99.90;;;;;;5088682;28;20415;-67
2023/08/31 01:03:13;;;;;;;4.80;2.10;;;13.40;99.90;;;;;;5087284;28;20902;-67
2023/08/31 01:05:50;;;;;;;2.90;1.90;;;13.40;99.90;;;;;;5088625;28;20456;-67
2023/08/31 01:08:29;;;;;;;3.43;2.17;;;13.40;99.90;;;;;;5088701;28;20412;-67
2023/08/31 01:10:55;;;;;;;3.20;2.23;;;13.40;99.90;;;;;;5088956;28;20412;-67
2023/08/31 01:13:25;;;;;;;5.37;2.67;;;13.40;99.90;;;;;;5089373;28;20417;-67
2023/08/31 01:15:59;;;;;;;4.10;2.50;;;13.40;99.90;;;;;;5089615;28;20195;-67
2023/08/31 01:18:27;;;;;;;3.57;2.30;;;13.40;99.90;;;;;;5089601;28;20490;-67
2023/08/31 01:21:02;;;;;;;5.70;2.37;;;13.40;99.90;;;;;;5089459;28;20424;-67
2023/08/31 01:23:56;;;;;;;3.00;2.10;;;13.30;99.90;;;;;;5089563;28;20463;-67
2023/08/31 01:26:23;;;;;;;2.50;2.17;;;13.30;99.90;;;;;;5089543;28;20429;-67
2023/08/31 01:28:49;;;;;;;2.63;2.40;;;13.40;99.90;;;;;;5089611;28;20461;-67
2023/08/31 01:31:15;;;;;;;4.03;2.37;;;13.40;99.90;;;;;;5089451;28;20421;-67
2023/08/31 01:33:41;;;;;;;3.07;1.90;;;13.40;99.90;;;;;;5089161;28;20420;-67
2023/08/31 01:36:32;;;;;;;2.83;2.30;;;13.40;99.90;;;;;;5089104;28;20870;-67
2023/08/31 01:39:09;;;;;;;3.00;2.03;;;13.40;99.90;;;;;;5088595;28;20709;-67
2023/08/31 01:41:37;;;;;;;5.03;2.30;;;13.40;99.90;;;;;;5089403;28;20404;-67
2023/08/31 01:44:04;;;;;;;2.73;2.23;;;13.50;99.90;;;;;;5089209;28;20509;-67
2023/08/31 01:46:30;;;;;;;3.63;2.27;;;13.50;99.90;;;;;;5089434;28;20419;-67
2023/08/31 01:48:56;;;;;;;2.50;2.30;;;13.50;99.90;;;;;;5089251;28;20432;-67
2023/08/31 01:51:22;;;;;;;5.77;2.20;;;13.50;99.90;;;;;;5093501;28;20420;-67
2023/08/31 01:53:48;;;;;;;3.10;2.20;;;13.50;99.90;;;;;;5093449;28;20427;-67
2023/08/31 01:56:13;;;;;;;3.93;3.00;;;13.50;99.90;;;;;;5093401;28;20476;-68
2023/08/31 01:58:39;;;;;;;3.40;2.90;;;13.50;99.90;;;;;;5093305;28;20646;-67
2023/08/31 02:01:05;;;;;;;2.90;1.90;;;13.50;99.90;;;;;;5093227;28;20274;-67
2023/08/31 02:03:30;;;;;;;3.37;2.37;;;13.50;99.90;;;;;;5093069;28;20213;-67
2023/08/31 02:05:57;;;;;;;3.60;2.50;;;13.50;99.90;;;;;;5092889;28;20205;-67
2023/08/31 02:08:22;;;;;;;2.40;1.83;;;13.50;99.90;;;;;;5091465;28;20202;-67
2023/08/31 02:10:48;;;;;;;3.30;2.50;;;13.50;99.90;;;;;;5092999;28;20513;-67
2023/08/31 02:13:15;;;;;;;7.20;2.47;;;13.30;99.90;;;;;;5092856;28;20737;-67
2023/08/31 02:15:41;;;;;;;2.60;1.90;;;13.40;99.90;;;;;;5092926;28;20203;-67
2023/08/31 02:18:07;;;;;;;4.90;2.10;;;13.40;99.90;;;;;;5074684;28;20553;-67
2023/08/31 02:20:34;;;;;;;2.60;1.77;;;13.40;99.90;;;;;;5092494;28;20181;-67
2023/08/31 02:23:00;;;;;;;2.97;2.20;;;13.40;99.90;;;;;;5092331;28;20452;-67
2023/08/31 02:25:27;;;;;;;2.07;1.57;;;13.40;99.90;;;;;;5092486;28;20850;-68
2023/08/31 02:27:54;;;;;;;6.13;2.50;;;13.50;99.90;;;;;;5090713;28;20481;-67
2023/08/31 02:30:19;;;;;;;2.43;2.03;;;13.40;99.90;;;;;;5092237;28;20831;-67
2023/08/31 02:32:45;;;;;;;4.63;2.20;;;13.40;99.90;;;;;;5092157;28;20420;-67
2023/08/31 02:35:12;;;;;;;3.13;2.40;;;13.50;99.90;;;;;;5092149;28;20694;-67
2023/08/31 02:37:37;;;;;;;2.53;2.10;;;13.50;99.90;;;;;;5092135;28;20177;-67
2023/08/31 02:40:04;;;;;;;4.07;2.40;;;13.50;99.90;;;;;;5091015;28;20432;-67
2023/08/31 02:42:30;;;;;;;3.30;2.10;;;13.40;99.90;;;;;;5092400;28;20182;-67
2023/08/31 02:44:55;;;;;;;4.10;2.47;;;13.40;99.90;;;;;;5092438;28;20432;-68
2023/08/31 02:47:21;;;;;;;3.40;2.53;;;13.50;99.90;;;;;;5092524;28;20185;-67
2023/08/31 02:49:47;;;;;;;7.17;3.10;;;13.50;99.90;;;;;;5092512;28;20415;-67
2023/08/31 02:52:13;;;;;;;8.93;2.30;;;13.50;99.90;;;;;;5092376;28;20186;-67
2023/08/31 02:54:39;;;;;;;6.13;2.43;;;13.40;99.90;;;;;;5092041;28;20474;-68
2023/08/31 02:57:04;;;;;;;3.90;2.70;;;13.40;99.90;;;;;;5092290;28;20722;-67
2023/08/31 02:59:30;;;;;;;7.37;2.93;;;13.40;99.90;;;;;;5092092;28;20179;-67
2023/08/31 03:01:56;;;;;;;3.40;2.47;;;13.50;99.90;;;;;;5091950;28;20188;-66
2023/08/31 03:04:21;;;;;;;8.20;2.30;;;13.40;99.90;;;;;;5090206;28;20225;-66
2023/08/31 03:06:47;;;;;;;4.10;2.57;;;13.50;99.90;;;;;;5091572;28;20278;-67
2023/08/31 03:09:13;;;;;;;5.57;2.80;;;13.40;99.90;;;;;;5090148;28;20183;-67
2023/08/31 03:11:39;;;;;;;3.67;2.63;;;13.40;99.90;;;;;;5091653;28;20227;-67
2023/08/31 03:14:04;;;;;;;3.50;3.07;;;13.40;99.90;;;;;;5091304;28;20420;-67
2023/08/31 03:16:30;;;;;;;5.57;2.30;;;13.40;99.90;;;;;;5091394;28;20188;-67
2023/08/31 03:18:55;;;;;;;4.00;2.37;;;13.30;99.90;;;;;;5091183;28;20194;-67
2023/08/31 03:21:21;;;;;;;4.90;2.23;;;13.30;99.90;;;;;;5091357;28;20210;-67
2023/08/31 03:23:46;;;;;;;4.17;2.80;;;13.20;99.90;;;;;;5091102;28;20906;-67
2023/08/31 03:26:12;;;;;;;8.80;3.47;;;13.20;99.90;;;;;;5089563;28;20202;-67
2023/08/31 03:28:40;;;;;;;3.37;2.23;;;13.20;99.90;;;;;;5091051;28;20206;-67
2023/08/31 03:31:05;;;;;;;9.50;2.57;;;13.20;99.90;;;;;;5091059;28;20201;-67
2023/08/31 03:33:31;;;;;;;7.23;2.23;;;13.30;99.90;;;;;;5089525;28;20421;-68
2023/08/31 03:36:04;;;;;;;2.93;2.23;;;13.30;99.90;;;;;;5089191;28;20222;-67
2023/08/31 03:38:37;;;;;;;6.73;2.53;;;13.30;99.90;;;;;;5090669;28;20182;-67
2023/08/31 03:41:03;;;;;;;3.30;2.10;;;13.30;99.90;;;;;;5090761;28;20436;-67
2023/08/31 03:43:28;;;;;;;4.30;2.80;;;13.30;99.90;;;;;;5090403;28;20480;-67
2023/08/31 03:45:57;;;;;;;3.60;2.53;;;13.20;99.90;;;;;;5090530;28;20670;-67
2023/08/31 03:48:23;;;;;;;6.57;3.17;;;13.30;99.90;;;;;;5090678;28;20183;-68
2023/08/31 03:50:53;;;;;;;7.13;2.50;;;13.30;99.90;;;;;;5089022;28;20478;-68
2023/08/31 03:53:19;;;;;;;4.20;2.60;;;13.30;99.90;;;;;;5090454;28;20424;-67
2023/08/31 03:55:45;;;;;;;5.13;2.60;;;13.20;99.90;;;;;;5090066;28;20471;-68
2023/08/31 03:58:10;;;;;;;5.80;2.43;;;13.30;99.90;;;;;;5090540;28;20187;-67
2023/08/31 04:00:38;;;;;;;5.60;3.27;;;13.30;99.90;;;;;;5088972;28;20920;-67
2023/08/31 04:03:04;;;;;;;4.00;2.53;;;13.30;99.90;;;;;;5090277;28;20555;-66
2023/08/31 04:05:34;;;;;;;3.83;2.10;;;13.30;99.90;;;;;;5090297;28;20445;-67
2023/08/31 04:08:00;;;;;;;2.87;2.30;;;13.30;99.90;;;;;;5090331;28;20923;-67
2023/08/31 04:10:26;;;;;;;5.50;2.30;;;13.30;99.90;;;;;;5089993;28;20424;-67
2023/08/31 04:12:52;;;;;;;5.23;2.60;;;13.30;99.90;;;;;;5088077;28;20428;-68
2023/08/31 04:15:17;;;;;;;5.57;3.10;;;13.20;99.90;;;;;;5089764;28;20900;-67
2023/08/31 04:17:43;;;;;;;4.73;2.27;;;13.20;99.90;;;;;;5089884;28;20460;-67
2023/08/31 04:20:10;;;;;;;7.83;2.80;;;13.20;99.90;;;;;;5089686;28;20273;-67
2023/08/31 04:22:36;;;;;;;5.80;2.60;;;13.30;99.90;;;;;;5089732;28;20189;-68
2023/08/31 04:25:02;;;;;;;3.70;2.67;;;13.30;99.90;;;;;;5086696;28;20432;-68
2023/08/31 04:27:30;;;;;;;4.20;2.70;;;13.30;99.90;;;;;;5088191;28;20174;-67
2023/08/31 04:29:55;;;;;;;8.87;3.47;;;13.20;99.90;;;;;;5088354;28;20916;-68
2023/08/31 04:32:21;;;;;;;6.80;2.37;;;13.30;99.90;;;;;;5088187;28;20415;-68
2023/08/31 04:34:46;;;;;;;3.77;2.60;;;13.30;99.90;;;;;;5087743;28;20707;-67
2023/08/31 04:37:12;;;;;;;4.07;2.67;;;13.30;99.90;;;;;;5087600;28;20959;-67
2023/08/31 04:39:38;;;;;;;5.87;2.27;;;13.30;99.90;;;;;;5087586;28;20182;-67
2023/08/31 04:42:04;;;;;;;11.60;2.50;;;13.30;99.90;;;;;;5087557;28;20206;-68
2023/08/31 04:44:30;;;;;;;6.27;2.20;;;13.40;99.90;;;;;;5087360;28;20218;-67
2023/08/31 04:46:55;;;;;;;5.53;2.50;;;13.40;99.90;;;;;;5087537;28;20421;-67
2023/08/31 04:49:21;;;;;;;7.10;2.13;;;13.30;99.90;;;;;;5086061;28;20646;-68
2023/08/31 04:51:46;;;;;;;8.07;2.40;;;13.30;99.90;;;;;;5087375;28;20183;-67
2023/08/31 04:54:12;;;;;;;4.20;2.43;;;13.40;99.90;;;;;;5087063;28;20252;-67
2023/08/31 04:56:38;;;;;;;5.03;1.97;;;13.40;99.90;;;;;;5087769;28;20685;-67
2023/08/31 04:59:04;;;;;;;4.63;2.47;;;13.30;99.90;;;;;;5087335;28;20198;-68
2023/08/31 05:01:29;;;;;;;7.67;2.93;;;13.20;99.90;;;;;;5069115;28;20592;-68
2023/08/31 05:03:55;;;;;;;7.63;2.27;;;13.20;99.90;;;;;;5087180;28;20210;-68
2023/08/31 05:06:20;;;;;;;4.10;2.53;;;13.20;99.90;;;;;;5087584;28;20760;-68
2023/08/31 05:08:49;;;;;;;7.70;2.60;;;13.20;99.90;;;;;;5087198;28;20179;-68
2023/08/31 05:11:15;;;;;;;3.60;2.40;;;13.20;99.90;;;;;;5087129;28;20178;-68
2023/08/31 05:13:43;;;;;;;3.43;2.37;;;13.20;99.90;;;;;;5087263;28;20420;-68
2023/08/31 05:16:09;;;;;;;5.60;2.03;;;13.20;99.90;;;;;;5087298;28;20590;-68
2023/08/31 05:18:35;;;;;;;3.33;1.87;;;13.10;99.90;;;;;;5087135;28;20988;-68
2023/08/31 05:21:02;;;;;;;4.93;3.00;;;13.20;99.90;;;;;;5087158;28;20704;-68
2023/08/31 05:23:27;;;;;;;5.43;2.33;;;13.20;99.90;;;;;;5086175;28;20544;-68
2023/08/31 05:25:53;;;;;;;8.17;2.33;;;13.20;99.90;;;;;;5087566;28;20520;-68
2023/08/31 05:28:18;;;;;;;6.70;2.60;;;13.20;99.90;;;;;;5087871;28;20205;-68
2023/08/31 05:30:56;;;;;;;3.70;2.00;;;13.10;99.90;;;;;;5088068;28;20225;-67
2023/08/31 05:33:28;;;;;;;5.60;2.23;;;13.10;99.90;;;;;;5088404;28;20520;-67
2023/08/31 05:35:54;;;;;;;5.20;2.20;;;13.10;99.90;;;;;;5088231;28;20857;-68
2023/08/31 05:38:20;;;;;;;4.57;2.53;;;13.10;99.90;;;;;;5087057;28;20412;-67
2023/08/31 05:40:46;;;;;;;5.20;2.23;;;13.30;99.90;;;;;;5087372;28;20190;-67
2023/08/31 05:43:15;;;;;;;2.30;2.10;;;13.30;99.90;;;;;;5088549;28;20295;-67
2023/08/31 05:45:41;;;;;;;2.30;1.90;;;13.40;99.90;;;;;;5088685;28;20498;-67
2023/08/31 05:48:08;;;;;;;8.70;2.17;;;13.40;99.90;;;;;;5088660;28;20416;-67
2023/08/31 05:50:34;;;;;;;5.30;2.13;;;13.40;99.90;;;;;;5088572;28;20524;-67
2023/08/31 05:52:59;;;;;;;6.23;2.63;;;13.40;99.90;;;;;;5088606;28;20997;-67
2023/08/31 05:55:25;;;;;;;4.80;2.73;;;13.30;99.90;;;;;;5088349;28;20218;-67
2023/08/31 05:57:51;;;;;;;4.70;1.80;;;13.40;99.90;;;;;;5088626;28;20197;-67
2023/08/31 06:00:17;;;;;;;5.83;2.30;;;13.50;99.90;;;;;;5088437;28;20202;-67
2023/08/31 06:02:44;;;;;;;8.70;3.10;;;13.60;99.90;;;;;;5088391;28;20721;-68
2023/08/31 06:05:16;;;;;;;7.03;2.63;;;13.70;99.90;;;;;;5088042;28;20515;-67
2023/08/31 06:07:42;;;;;;;8.90;2.77;;;13.80;99.90;;;;;;5087985;28;20904;-68
2023/08/31 06:10:08;;;;;;;7.93;3.40;;;13.80;99.90;;;;;;5088183;28;21021;-67
2023/08/31 06:12:33;;;;;;;7.33;2.20;;;13.90;99.90;;;;;;5087839;28;20681;-67
2023/08/31 06:15:00;;;;;;;3.00;2.07;;;13.90;99.90;;;;;;5087743;28;20305;-67
2023/08/31 06:17:26;;;;;;;3.90;2.47;;;14.00;99.90;;;;;;5086437;28;20197;-69
2023/08/31 06:19:51;;;;;;;9.47;2.80;;;14.00;99.90;;;;;;5087556;28;20416;-67
2023/08/31 06:22:18;;;;;;;5.20;2.17;;;13.90;99.90;;;;;;5087716;28;20481;-67
2023/08/31 06:24:45;;;;;;;4.27;2.10;;;14.00;99.90;;;;;;5087626;28;20937;-68
2023/08/31 06:27:12;;;;;;;7.83;2.70;;;14.00;99.90;;;;;;5087663;28;20453;-67
2023/08/31 06:29:38;;;;;;;5.17;2.10;;;14.00;99.90;;;;;;5087804;28;20412;-67
2023/08/31 06:32:04;;;;;;;9.43;3.33;;;14.00;99.90;;;;;;5087767;28;20421;-67
2023/08/31 06:34:30;;;;;;;4.53;2.40;;;14.00;99.90;;;;;;5088492;28;20199;-67
2023/08/31 06:36:58;;;;;;;8.67;2.50;;;14.00;99.90;;;;;;5090371;28;20431;-67
2023/08/31 06:39:23;;;;;;;3.90;2.73;;;14.10;99.90;;;;;;5090517;28;20485;-67
2023/08/31 06:41:49;;;;;;;4.10;2.83;;;14.10;99.90;;;;;;5091565;28;20404;-67
2023/08/31 06:44:15;;;;;;;9.33;2.40;;;14.20;99.90;;;;;;5090754;28;20533;-67
2023/08/31 06:46:40;;;;;;;3.80;2.40;;;14.20;99.90;;;;;;5091031;28;20207;-67
2023/08/31 06:49:06;;;;;;;10.37;3.03;;;14.30;99.90;;;;;;5091002;28;20182;-67
2023/08/31 06:51:34;;;;;;;4.83;2.90;;;14.40;99.90;;;;;;5090928;28;20286;-67
2023/08/31 06:54:05;;;;;;;5.23;3.13;;;14.40;99.90;;;;;;5091117;28;20180;-67
2023/08/31 06:56:35;;;;;;;6.40;2.47;;;14.50;99.90;;;;;;5073535;28;20425;-67
2023/08/31 06:59:00;;;;;;;6.67;2.50;;;14.50;99.90;;;;;;5090945;28;20790;-67
2023/08/31 07:01:28;;;;;;;4.50;2.27;;;14.70;99.90;;;;;;5090829;28;20524;-67
2023/08/31 07:03:53;;;;;;;6.27;3.03;;;14.70;99.90;;;;;;5090642;28;20214;-67
2023/08/31 07:06:19;;;;;;;4.97;2.63;;;14.80;99.90;;;;;;5071671;28;20449;-67
2023/08/31 07:08:45;;;;;;;4.00;2.67;;;14.80;99.90;;;;;;5090618;28;20185;-67
2023/08/31 07:11:11;;;;;;;4.70;3.07;;;14.80;99.90;;;;;;5090549;28;20182;-67
2023/08/31 07:13:37;;;;;;;6.53;2.73;;;14.90;99.90;;;;;;5090239;28;20226;-68
2023/08/31 07:16:02;;;;;;;6.47;2.27;;;14.90;99.90;;;;;;5090065;28;20473;-67
2023/08/31 07:18:28;;;;;;;7.50;2.80;;;14.90;99.90;;;;;;5090124;28;20245;-67
2023/08/31 07:20:54;;;;;;;5.40;2.67;;;14.90;99.90;;;;;;5090201;28;20711;-66
2023/08/31 07:23:25;;;;;;;4.80;2.07;;;14.90;99.90;;;;;;5090167;28;20212;-66
2023/08/31 07:25:50;;;;;;;9.30;2.57;;;15.00;99.90;;;;;;5090097;28;20242;-66
2023/08/31 07:28:17;;;;;;;4.83;2.80;;;15.10;99.90;;;;;;5090265;28;20418;-67
2023/08/31 07:30:43;;;;;;;6.27;2.60;;;15.10;99.90;;;;;;5090111;28;20397;-67
2023/08/31 07:33:09;;;;;;;3.97;2.50;;;15.10;99.90;;;;;;5089955;28;20429;-67
2023/08/31 07:35:38;;;;;;;8.93;2.83;;;15.20;99.90;;;;;;5088782;28;20476;-67
2023/08/31 07:38:03;;;;;;;6.70;2.60;;;15.30;99.90;;;;;;5089892;28;20212;-67
2023/08/31 07:40:29;;;;;;;9.80;2.47;;;15.50;99.90;;;;;;5090025;28;20456;-67
2023/08/31 07:42:54;;;;;;;7.67;2.47;;;15.70;99.90;;;;;;5089835;28;20719;-68
2023/08/31 07:45:20;;;;;;;4.37;2.03;;;15.90;99.90;;;;;;5089666;28;20291;-67
2023/08/31 07:47:46;;;;;;;7.07;2.90;;;15.90;99.90;;;;;;5088663;28;20185;-68
2023/08/31 07:50:12;;;;;;;4.23;2.40;;;16.00;99.90;;;;;;5089749;28;20185;-65
2023/08/31 07:52:40;;;;;;;5.03;2.30;;;15.90;99.90;;;;;;5087993;28;20189;-68
2023/08/31 07:55:06;;;;;;;10.10;2.77;;;16.00;99.90;;;;;;5089332;28;20631;-67
2023/08/31 07:57:31;;;;;;;2.53;2.13;;;16.00;99.90;;;;;;5088074;28;20496;-67
2023/08/31 07:59:59;;;;;;;5.50;2.07;;;16.00;99.90;;;;;;5089394;28;20217;-66
2023/08/31 08:02:25;;;;;;;3.37;2.13;;;16.10;99.90;;;;;;5089443;28;20226;-67
2023/08/31 08:04:50;;;;;;;5.13;2.20;;;16.20;99.90;;;;;;5087739;28;20476;-67
2023/08/31 08:07:16;;;;;;;8.77;2.40;;;16.30;99.90;;;;;;5087174;28;20187;-67
2023/08/31 08:09:42;;;;;;;3.73;2.00;;;16.40;99.90;;;;;;5088778;28;20227;-66
2023/08/31 08:12:07;;;;;;;3.17;1.90;;;16.50;99.90;;;;;;5088835;28;20179;-67
2023/08/31 08:14:34;;;;;;;6.30;2.80;;;16.60;99.90;;;;;;5088850;28;20559;-67
2023/08/31 08:16:59;;;;;;;3.87;2.00;;;16.70;99.90;;;;;;5088834;28;20432;-67
2023/08/31 08:19:25;;;;;;;7.37;3.40;;;16.70;99.90;;;;;;5087496;28;20427;-67
2023/08/31 08:21:51;;;;;;;4.47;2.07;;;16.80;99.90;;;;;;5089189;28;20427;-67
2023/08/31 08:24:17;;;;;;;3.80;2.00;;;16.70;99.90;;;;;;5087715;28;20761;-67
2023/08/31 08:26:42;;;;;;;5.77;2.10;;;16.80;99.90;;;;;;5089033;28;20464;-67
2023/08/31 08:29:08;;;;;;;4.60;2.20;;;16.80;99.90;;;;;;5088992;28;20585;-67
2023/08/31 08:31:33;;;;;;;5.50;2.67;;;16.90;99.90;;;;;;5087449;28;20190;-67
2023/08/31 08:34:00;;;;;;;6.97;2.60;;;16.90;99.90;;;;;;5088992;28;20691;-67
2023/08/31 08:36:26;;;;;;;6.77;2.13;;;17.00;99.90;;;;;;5088933;28;20201;-67
2023/08/31 08:38:51;;;;;;;4.73;1.93;;;17.00;99.90;;;;;;5088816;28;20430;-67
2023/08/31 08:41:23;;;;;;;2.70;1.60;;;17.30;99.90;;;;;;5088742;28;20186;-67
2023/08/31 08:43:51;;;;;;;4.63;1.87;;;17.30;99.90;;;;;;5087095;28;20253;-67
2023/08/31 08:46:17;;;;;;;2.20;1.97;;;17.40;99.90;;;;;;5088338;28;20947;-67
2023/08/31 08:48:44;;;;;;;5.30;2.17;;;17.40;99.90;;;;;;5087853;28;20415;-67
2023/08/31 08:51:10;;;;;;;4.00;2.20;;;17.40;99.90;;;;;;5088041;28;20178;-68
2023/08/31 08:53:38;;;;;;;8.70;2.07;;;17.40;99.90;;;;;;5086633;28;20437;-67
2023/08/31 08:56:04;;;;;;;4.20;2.40;;;17.60;99.90;;;;;;5087711;28;20493;-67
2023/08/31 08:58:30;;;;;;;5.33;2.00;;;17.70;99.90;;;;;;5087640;28;20420;-67
2023/08/31 09:00:58;;;;;;;5.63;2.17;;;17.50;99.90;;;;;;5087566;28;20458;-67
2023/08/31 09:03:24;;;;;;;4.37;1.47;;;17.60;99.90;;;;;;5087905;28;20255;-68
2023/08/31 09:05:54;;;;;;;2.43;1.80;;;17.70;99.90;;;;;;5088085;28;21119;-68
2023/08/31 09:08:27;;;;;;;3.37;1.90;;;18.00;99.90;;;;;;5086599;28;20417;-67
2023/08/31 09:10:55;;;;;;;4.80;2.10;;;17.80;99.90;;;;;;5087973;28;20463;-67
2023/08/31 09:13:20;;;;;;;4.63;2.20;;;18.20;99.90;;;;;;5087967;28;20412;-66
2023/08/31 09:15:47;;;;;;;2.47;1.57;;;18.40;99.90;;;;;;5086399;28;20528;-68
2023/08/31 09:18:25;;;;;;;5.23;2.03;;;18.50;99.90;;;;;;5087853;28;20197;-67
2023/08/31 09:20:51;;;;;;;2.80;1.47;;;18.60;98.70;;;;;;5088031;28;20526;-68
2023/08/31 09:23:17;;;;;;;7.43;2.40;;;18.60;97.80;;;;;;5087976;28;20456;-67
2023/08/31 09:25:50;;;;;;;3.40;1.87;;;18.80;99.90;;;;;;5087916;28;20469;-67
2023/08/31 09:28:19;;;;;;;4.40;1.50;;;18.80;93.40;;;;;;5087832;28;20938;-67
2023/08/31 09:30:48;;;;;;;6.40;1.97;;;18.70;95.20;;;;;;5087884;28;20420;-67
2023/08/31 09:33:18;;;;;;;3.37;1.60;;;18.50;95.90;;;;;;5086416;28;20425;-67
2023/08/31 09:35:51;;;;;;;5.73;2.20;;;18.30;96.70;;;;;;5087951;28;20462;-67
2023/08/31 09:38:17;;;;;;;5.60;1.83;;;18.10;99.10;;;;;;5087978;28;20427;-67
2023/08/31 09:40:42;;;;;;;5.57;2.60;;;18.00;99.80;;;;;;5087874;28;20443;-66
2023/08/31 09:43:08;;;;;;;8.30;2.03;;;17.80;99.60;;;;;;5087674;28;20980;-67
2023/08/31 09:45:35;;;;;;;5.50;2.30;;;17.70;99.90;;;;;;5086436;28;20196;-68
2023/08/31 09:48:02;;;;;;;4.50;1.87;;;17.60;99.90;;;;;;5088131;28;20177;-67
2023/08/31 09:50:32;;;;;;;5.60;2.17;;;17.60;99.90;;;;;;5087993;28;20419;-67
2023/08/31 09:53:03;;;;;;;8.73;2.10;;;17.70;99.90;;;;;;5069782;28;20440;-67
2023/08/31 09:55:30;;;;;;;4.27;1.97;;;17.90;99.90;;;;;;5087740;28;21249;-68
2023/08/31 09:57:59;;;;;;;5.47;2.00;;;18.00;99.30;;;;;;5086732;28;20414;-66
2023/08/31 10:00:26;;;;;;;4.70;2.00;;;17.90;99.90;;;;;;5088071;28;20464;-68
2023/08/31 10:02:56;;;;;;;3.30;2.03;;;18.50;98.00;;;;;;5086603;28;20454;-66
2023/08/31 10:05:23;;;;;;;5.83;2.30;;;18.70;97.60;;;;;;5086950;28;20456;-66
2023/08/31 10:07:50;;;;;;;3.50;1.93;;;18.40;96.40;;;;;;5088443;28;20413;-67
2023/08/31 10:10:16;;;;;;;5.07;2.33;;;18.10;97.00;;;;;;5090350;28;20421;-67
2023/08/31 10:12:44;;;;;;;6.97;2.03;;;18.00;99.90;;;;;;5092534;28;20407;-68
2023/08/31 10:15:10;;;;;;;3.10;2.03;;;18.70;99.90;;;;;;5092359;28;21248;-67
2023/08/31 10:17:36;;;;;;;3.90;1.70;;;19.10;99.00;;;;;;5092340;28;20423;-67
2023/08/31 10:20:02;;;;;;;5.10;1.87;;;19.30;97.50;;;;;;5091124;28;20412;-67
2023/08/31 10:22:30;;;;;;;7.07;2.13;;;19.20;97.70;;;;;;5092405;28;20480;-67
2023/08/31 10:24:59;;;;;;;4.77;2.17;;;19.30;97.20;;;;;;5092226;28;20463;-67
2023/08/31 10:27:24;;;;;;;4.50;2.17;;;19.10;95.30;;;;;;5092167;28;20417;-68
2023/08/31 10:29:50;;;;;;;6.87;2.83;;;18.90;96.60;;;;;;5091893;28;20414;-67
2023/08/31 10:32:19;;;;;;;6.80;2.43;;;18.60;94.60;;;;;;5091674;28;20540;-67
2023/08/31 10:35:04;;;;;;;4.13;2.63;;;18.80;96.90;;;;;;5090451;28;20229;-67
2023/08/31 10:37:30;;;;;;;3.60;1.83;;;19.30;94.10;;;;;;5091981;28;20996;-67
2023/08/31 10:40:12;;;;;;;7.77;2.00;;;20.30;95.80;;;;;;5091960;28;20526;-68
2023/08/31 10:43:07;;;;;;;4.03;2.30;;;21.00;93.10;;;;;;5092309;28;20217;-68
2023/08/31 10:45:43;;;;;;;5.63;2.20;;;20.90;90.80;;;;;;5092087;28;20448;-68
2023/08/31 10:48:09;;;;;;;4.50;2.37;;;21.10;87.40;;;;;;5092248;28;20880;-67
2023/08/31 10:50:41;;;;;;;4.30;2.20;;;21.10;84.50;;;;;;5091904;28;20417;-67
2023/08/31 10:53:11;;;;;;;6.43;2.00;;;21.10;86.30;;;;;;5092140;28;20178;-67
2023/08/31 10:55:53;;;;;;;5.33;2.43;;;21.20;84.00;;;;;;5091786;28;20466;-67
2023/08/31 10:58:19;;;;;;;11.30;2.27;;;20.80;84.50;;;;;;5090101;28;20436;-67
2023/08/31 11:00:52;;;;;;;11.27;2.77;;;20.90;87.20;;;;;;5091673;28;20816;-67
2023/08/31 11:03:18;;;;;;;9.73;2.70;;;21.50;90.60;;;;;;5091512;28;20498;-67
2023/08/31 11:05:53;;;;;;;5.83;2.87;;;22.00;85.20;;;;;;5091243;28;20456;-68
2023/08/31 11:08:26;;;;;;;3.63;1.60;;;22.00;86.80;;;;;;5091558;28;20174;-67
2023/08/31 11:10:52;;;;;;;4.80;1.70;;;21.50;87.10;;;;;;5091533;28;20416;-67
2023/08/31 11:13:22;;;;;;;6.93;2.20;;;21.30;87.10;;;;;;5091484;28;20415;-68
2023/08/31 11:15:48;;;;;;;4.07;2.30;;;21.80;88.30;;;;;;5091314;28;20436;-67
2023/08/31 11:18:17;;;;;;;3.33;1.60;;;22.00;88.50;;;;;;5091361;28;20417;-68
2023/08/31 11:20:44;;;;;;;4.70;2.20;;;22.30;87.10;;;;;;5090634;28;21283;-67
2023/08/31 11:23:09;;;;;;;6.10;2.23;;;22.50;87.90;;;;;;5090370;28;20463;-68
2023/08/31 11:25:35;;;;;;;7.93;1.83;;;22.20;87.10;;;;;;5090787;28;20433;-67
2023/08/31 11:28:09;;;;;;;11.10;6.83;;;22.70;86.70;;;;;;5090879;28;20437;-67
2023/08/31 11:30:36;;;;;;;5.93;2.43;;;23.10;87.60;;;;;;5091135;28;20409;-67
2023/08/31 11:33:07;;;;;;;2.83;1.87;;;23.40;90.90;;;;;;5090932;28;20433;-67
2023/08/31 11:35:40;;;;;;;7.40;3.33;;;23.40;92.40;;;;;;5090650;28;20599;-67
2023/08/31 11:38:06;;;;;;;4.40;2.10;;;23.60;90.70;;;;;;5090808;28;20405;-67
2023/08/31 11:40:32;;;;;;;9.37;1.93;;;23.50;90.40;;;;;;5090720;28;20414;-67
2023/08/31 11:43:00;;;;;;;4.30;1.93;;;23.70;95.90;;;;;;5090636;28;20208;-67
2023/08/31 11:45:27;;;;;;;5.70;2.60;;;23.30;85.60;;;;;;5090698;28;20725;-68
2023/08/31 11:47:53;;;;;;;6.20;2.20;;;23.40;86.00;;;;;;5090542;28;20427;-67
2023/08/31 11:50:20;;;;;;;7.63;2.43;;;23.60;84.10;;;;;;5090581;28;20442;-67
2023/08/31 11:52:46;;;;;;;4.13;1.90;;;23.80;85.60;;;;;;5072012;28;20428;-67
2023/08/31 11:55:14;;;;;;;5.00;2.20;;;24.00;84.30;;;;;;5090442;28;20862;-67
2023/08/31 11:57:40;;;;;;;3.30;2.27;;;23.60;85.90;;;;;;5090446;28;20940;-68
2023/08/31 12:00:06;;;;;;;4.30;2.00;;;23.50;84.40;;;;;;5090482;28;20586;-67
2023/08/31 12:02:38;;;;;;;6.97;2.07;;;23.60;85.50;;;;;;5090475;28;20574;-67
2023/08/31 12:05:09;;;;;;;3.73;1.80;;;23.60;87.20;;;;;;5088658;28;20477;-66
2023/08/31 12:07:40;;;;;;;3.77;1.80;;;23.50;83.40;;;;;;5090427;28;20507;-67
2023/08/31 12:10:07;;;;;;;4.13;2.13;;;23.70;85.10;;;;;;5090307;28;20819;-67
2023/08/31 12:12:34;;;;;;;2.93;2.00;;;23.60;85.40;;;;;;5090191;28;20456;-68
2023/08/31 12:15:03;;;;;;;5.23;2.10;;;23.80;83.30;;;;;;5089962;28;20447;-68
2023/08/31 12:17:30;;;;;;;5.27;2.30;;;23.90;83.00;;;;;;5090018;28;20506;-68
2023/08/31 12:20:05;;;;;;;6.23;2.17;;;24.00;90.80;;;;;;5090113;28;20424;-67
2023/08/31 12:22:31;;;;;;;4.43;2.47;;;24.00;82.00;;;;;;5089891;28;20414;-68
2023/08/31 12:24:56;;;;;;;5.23;2.30;;;24.00;83.70;;;;;;5088292;28;20881;-68
2023/08/31 12:27:22;;;;;;;5.60;2.50;;;24.10;83.60;;;;;;5089728;28;20217;-68
2023/08/31 12:29:48;;;;;;;3.30;2.10;;;24.30;83.90;;;;;;5089369;28;20181;-68
2023/08/31 12:32:14;;;;;;;3.40;1.87;;;24.40;83.20;;;;;;5087221;28;20329;-69
2023/08/31 12:34:40;;;;;;;3.67;2.40;;;24.20;82.40;;;;;;5088872;28;20447;-68
2023/08/31 12:37:05;;;;;;;3.07;1.67;;;24.30;78.90;;;;;;5089527;28;20245;-68
2023/08/31 12:39:32;;;;;;;4.67;1.97;;;23.90;80.30;;;;;;5089589;28;20849;-68
2023/08/31 12:41:57;;;;;;;4.17;2.27;;;24.00;78.80;;;;;;5089417;28;20181;-68
2023/08/31 12:44:25;;;;;;;3.60;1.77;;;23.80;78.80;;;;;;5087304;28;20525;-67
2023/08/31 12:46:51;;;;;;;6.50;2.83;;;23.50;78.10;;;;;;5089263;28;20189;-66